Time;durP1;ratioP1;P1;durP2;ratioP2;P2;SDS_P1;SDS_P2;PMS_P1;PMS_P2;Temp;Humidity;BMP_temperature;BMP_pressure;BME280_temperature;BME280_humidity;BME280_pressure;Samples;Min_cycle;Max_cycle;Signal;HPM_P1;HPM_P2
2022/03/26 00:00:06;;;;;;;53.25;24.25;;;4.70;99.90;;;;;;5091163;28;20040;-69
2022/03/26 00:02:32;;;;;;;47.08;22.92;;;4.60;99.90;;;;;;5085069;28;20028;-68
2022/03/26 00:04:57;;;;;;;45.83;22.35;;;4.60;99.90;;;;;;5074175;28;20108;-69
2022/03/26 00:07:23;;;;;;;47.85;22.55;;;4.60;99.90;;;;;;5089914;28;20032;-68
2022/03/26 00:09:49;;;;;;;47.47;23.17;;;4.60;99.90;;;;;;5088749;28;20109;-68
2022/03/26 00:12:15;;;;;;;48.53;22.52;;;4.50;99.90;;;;;;5085930;28;20037;-68
2022/03/26 00:14:40;;;;;;;48.17;22.33;;;4.50;99.90;;;;;;5088900;28;20039;-68
2022/03/26 00:17:06;;;;;;;51.45;23.80;;;4.50;99.90;;;;;;5093032;28;20087;-68
2022/03/26 00:19:32;;;;;;;49.33;23.48;;;4.40;99.90;;;;;;5088623;28;20402;-68
2022/03/26 00:21:58;;;;;;;52.72;24.25;;;4.50;99.90;;;;;;5091024;28;20061;-68
2022/03/26 00:24:23;;;;;;;50.05;24.85;;;4.50;99.90;;;;;;5084582;28;20027;-68
2022/03/26 00:26:49;;;;;;;52.60;25.15;;;4.40;99.90;;;;;;5091464;28;20023;-68
2022/03/26 00:29:15;;;;;;;54.88;24.42;;;4.40;99.90;;;;;;5092276;28;20035;-68
2022/03/26 00:31:41;;;;;;;50.42;24.10;;;4.40;99.90;;;;;;5086143;28;20048;-69
2022/03/26 00:34:07;;;;;;;51.47;25.55;;;4.40;99.90;;;;;;5070793;28;20462;-68
2022/03/26 00:36:33;;;;;;;51.67;24.95;;;4.40;99.90;;;;;;5089840;28;20036;-68
2022/03/26 00:38:59;;;;;;;54.78;25.77;;;4.40;99.90;;;;;;5088144;28;20024;-68
2022/03/26 00:41:25;;;;;;;54.22;26.02;;;4.30;99.90;;;;;;5089022;28;20600;-68
2022/03/26 00:43:51;;;;;;;55.72;26.48;;;4.30;99.90;;;;;;5083845;28;20083;-68
2022/03/26 00:46:17;;;;;;;55.38;26.73;;;4.30;99.90;;;;;;5089478;28;20097;-68
2022/03/26 00:48:43;;;;;;;58.28;27.13;;;4.30;99.90;;;;;;5085866;28;20020;-69
2022/03/26 00:51:09;;;;;;;54.15;25.05;;;4.30;99.90;;;;;;5089303;28;20027;-68
2022/03/26 00:53:35;;;;;;;50.88;23.63;;;4.30;99.90;;;;;;5091162;28;20024;-68
2022/03/26 00:56:01;;;;;;;48.90;25.17;;;4.40;99.90;;;;;;5089844;28;20049;-69
2022/03/26 00:58:26;;;;;;;47.72;24.02;;;4.30;99.90;;;;;;5093126;28;20082;-68
2022/03/26 01:00:52;;;;;;;52.00;24.98;;;4.30;99.90;;;;;;5089010;28;20016;-68
2022/03/26 01:03:18;;;;;;;58.67;27.15;;;4.20;99.90;;;;;;5091260;28;20035;-68
2022/03/26 01:05:44;;;;;;;49.40;24.10;;;4.20;99.90;;;;;;5088808;28;20028;-68
2022/03/26 01:08:10;;;;;;;56.92;27.63;;;4.20;99.90;;;;;;5090354;28;20056;-68
2022/03/26 01:10:36;;;;;;;55.22;25.75;;;4.20;99.90;;;;;;5086160;28;20032;-68
2022/03/26 01:13:03;;;;;;;55.70;27.02;;;4.20;99.90;;;;;;5085033;28;20031;-68
2022/03/26 01:15:28;;;;;;;55.42;26.52;;;4.20;99.90;;;;;;5071490;28;20031;-68
2022/03/26 01:17:54;;;;;;;53.45;25.20;;;4.20;99.90;;;;;;5074011;28;20040;-69
2022/03/26 01:20:20;;;;;;;49.55;25.48;;;4.10;99.90;;;;;;5088732;28;20044;-68
2022/03/26 01:22:46;;;;;;;52.25;24.88;;;4.10;99.90;;;;;;5072386;28;20482;-68
2022/03/26 01:25:12;;;;;;;56.97;26.05;;;4.10;99.90;;;;;;5091271;28;20043;-69
2022/03/26 01:27:38;;;;;;;50.72;24.75;;;4.10;99.90;;;;;;5072229;28;20024;-68
2022/03/26 01:30:05;;;;;;;58.10;26.20;;;4.00;99.90;;;;;;5087819;28;20098;-68
2022/03/26 01:32:31;;;;;;;49.63;24.27;;;4.10;99.90;;;;;;5088982;28;20093;-68
2022/03/26 01:34:57;;;;;;;51.17;25.60;;;4.00;99.90;;;;;;5085613;28;20053;-68
2022/03/26 01:37:24;;;;;;;53.65;24.08;;;4.00;99.90;;;;;;5087723;28;20092;-69
2022/03/26 01:39:52;;;;;;;50.20;24.35;;;3.90;99.90;;;;;;5086157;28;20133;-68
2022/03/26 01:42:18;;;;;;;49.78;22.98;;;3.90;99.90;;;;;;5093111;28;20029;-67
2022/03/26 01:44:44;;;;;;;52.75;23.70;;;3.90;99.90;;;;;;5086226;28;20473;-68
2022/03/26 01:47:10;;;;;;;46.95;23.13;;;3.90;99.90;;;;;;5089329;28;20036;-68
2022/03/26 01:49:36;;;;;;;49.47;21.55;;;3.90;99.90;;;;;;5076490;28;20079;-68
2022/03/26 01:52:03;;;;;;;48.47;22.52;;;3.80;99.90;;;;;;5089448;28;20439;-68
2022/03/26 01:54:29;;;;;;;52.17;23.52;;;3.80;99.90;;;;;;5091637;28;20763;-68
2022/03/26 01:56:56;;;;;;;52.90;24.17;;;3.70;99.90;;;;;;5089687;28;20037;-68
2022/03/26 01:59:23;;;;;;;47.10;22.27;;;3.70;99.90;;;;;;5086346;28;20143;-68
2022/03/26 02:01:49;;;;;;;46.63;22.20;;;3.70;99.90;;;;;;5072006;28;20386;-68
2022/03/26 02:04:15;;;;;;;47.13;23.30;;;3.70;99.90;;;;;;5093120;28;20021;-69
2022/03/26 02:06:41;;;;;;;48.17;22.25;;;3.60;99.90;;;;;;5088047;28;20020;-68
2022/03/26 02:09:12;;;;;;;49.42;22.00;;;3.60;99.90;;;;;;5085756;28;20029;-69
2022/03/26 02:11:40;;;;;;;38.50;21.45;;;3.60;99.90;;;;;;5089994;28;20028;-68
2022/03/26 02:14:08;;;;;;;40.60;20.58;;;3.60;99.90;;;;;;5084725;28;20030;-69
2022/03/26 02:16:36;;;;;;;43.08;21.20;;;3.60;99.90;;;;;;5080147;28;20032;-69
2022/03/26 02:19:04;;;;;;;48.35;22.60;;;3.60;99.90;;;;;;5085688;28;20036;-68
2022/03/26 02:21:30;;;;;;;44.38;20.80;;;3.60;99.90;;;;;;5089479;28;20024;-69
2022/03/26 02:23:56;;;;;;;50.55;23.65;;;3.50;99.90;;;;;;5090883;28;20862;-68
2022/03/26 02:26:26;;;;;;;50.00;22.83;;;3.50;99.90;;;;;;5089555;28;20035;-68
2022/03/26 02:28:53;;;;;;;51.78;22.77;;;3.50;99.90;;;;;;5058284;28;20111;-68
2022/03/26 02:31:19;;;;;;;46.33;22.52;;;3.50;99.90;;;;;;5093110;28;20592;-68
2022/03/26 02:33:45;;;;;;;47.47;22.10;;;3.50;99.90;;;;;;5092694;28;20050;-68
2022/03/26 02:36:11;;;;;;;46.50;22.00;;;3.50;99.90;;;;;;5084693;28;20033;-68
2022/03/26 02:38:41;;;;;;;49.67;22.67;;;3.50;99.90;;;;;;5086908;28;20040;-68
2022/03/26 02:41:07;;;;;;;47.35;22.98;;;3.40;99.90;;;;;;5090309;28;20037;-68
2022/03/26 02:43:33;;;;;;;52.55;23.55;;;3.40;99.90;;;;;;5106437;28;20046;-69
2022/03/26 02:45:59;;;;;;;50.15;23.67;;;3.40;99.90;;;;;;5067790;28;20036;-68
2022/03/26 02:48:24;;;;;;;50.95;25.00;;;3.30;99.90;;;;;;5089405;28;20016;-68
2022/03/26 02:50:51;;;;;;;52.95;24.88;;;3.30;99.90;;;;;;5085882;28;20030;-69
2022/03/26 02:53:16;;;;;;;51.70;24.80;;;3.30;99.90;;;;;;5090184;28;20051;-68
2022/03/26 02:55:43;;;;;;;51.85;25.08;;;3.30;99.90;;;;;;5085593;28;20031;-68
2022/03/26 02:58:09;;;;;;;50.95;26.60;;;3.20;99.90;;;;;;5092645;28;20063;-68
2022/03/26 03:00:36;;;;;;;54.03;25.88;;;3.20;99.90;;;;;;5087071;28;20032;-69
2022/03/26 03:03:02;;;;;;;58.67;26.75;;;3.20;99.90;;;;;;5086266;28;20062;-69
2022/03/26 03:05:27;;;;;;;55.63;26.63;;;3.10;99.90;;;;;;5091606;28;20039;-69
2022/03/26 03:07:53;;;;;;;63.50;26.75;;;3.10;99.90;;;;;;5086451;28;20030;-69
2022/03/26 03:10:20;;;;;;;60.35;27.85;;;3.10;99.90;;;;;;5082045;28;20028;-69
2022/03/26 03:12:47;;;;;;;64.68;28.42;;;3.10;99.90;;;;;;5095551;28;20580;-69
2022/03/26 03:15:16;;;;;;;66.13;30.50;;;3.00;99.90;;;;;;5090787;28;20025;-69
2022/03/26 03:17:42;;;;;;;59.47;28.98;;;3.00;99.90;;;;;;5087816;28;20036;-69
2022/03/26 03:20:09;;;;;;;66.25;32.22;;;3.00;99.90;;;;;;5091303;28;20016;-69
2022/03/26 03:22:38;;;;;;;75.18;33.05;;;3.10;99.90;;;;;;5086572;28;20035;-68
2022/03/26 03:25:07;;;;;;;64.63;31.15;;;3.00;99.90;;;;;;5089408;28;20016;-68
2022/03/26 03:27:33;;;;;;;68.55;31.67;;;3.00;99.90;;;;;;5089915;28;20024;-69
2022/03/26 03:29:59;;;;;;;75.50;34.60;;;3.00;99.90;;;;;;5086759;28;20043;-69
2022/03/26 03:32:26;;;;;;;82.40;36.40;;;3.00;99.90;;;;;;5086451;28;20056;-69
2022/03/26 03:34:52;;;;;;;80.00;36.00;;;3.00;99.90;;;;;;5091730;28;20048;-69
2022/03/26 03:37:18;;;;;;;71.80;33.10;;;3.10;99.90;;;;;;5085632;28;20070;-69
2022/03/26 03:39:44;;;;;;;76.78;34.83;;;3.00;99.90;;;;;;5089119;28;20042;-68
2022/03/26 03:42:10;;;;;;;72.75;33.45;;;3.00;99.90;;;;;;5089471;28;20028;-68
2022/03/26 03:44:35;;;;;;;77.90;35.47;;;3.00;99.90;;;;;;5091817;28;20056;-68
2022/03/26 03:47:02;;;;;;;77.68;34.85;;;3.00;99.90;;;;;;5091861;28;20032;-69
2022/03/26 03:49:31;;;;;;;79.90;34.35;;;3.00;99.90;;;;;;5091942;28;20353;-69
2022/03/26 03:51:58;;;;;;;83.55;35.08;;;2.90;99.90;;;;;;5093000;28;20028;-69
2022/03/26 03:54:25;;;;;;;73.00;34.78;;;2.90;99.90;;;;;;5094501;28;20020;-69
2022/03/26 03:56:51;;;;;;;85.07;37.40;;;2.90;99.90;;;;;;5091557;28;20150;-69
2022/03/26 03:59:17;;;;;;;82.82;36.78;;;2.90;99.90;;;;;;5090146;28;20048;-69
2022/03/26 04:01:42;;;;;;;84.60;36.45;;;2.90;99.90;;;;;;5070584;28;20028;-68
2022/03/26 04:04:08;;;;;;;81.60;36.85;;;3.00;99.90;;;;;;5085214;28;20574;-69
2022/03/26 04:06:34;;;;;;;85.88;38.42;;;2.90;99.90;;;;;;5085847;28;20017;-68
2022/03/26 04:08:59;;;;;;;80.18;37.10;;;2.90;99.90;;;;;;5088899;28;20604;-68
2022/03/26 04:11:25;;;;;;;84.65;38.10;;;2.90;99.90;;;;;;5086194;28;20033;-68
2022/03/26 04:13:53;;;;;;;94.63;39.38;;;2.90;99.90;;;;;;5088449;28;20021;-68
2022/03/26 04:16:19;;;;;;;88.45;38.70;;;2.80;99.90;;;;;;5085928;28;20050;-69
2022/03/26 04:18:45;;;;;;;99.97;41.22;;;2.80;99.90;;;;;;5091686;28;20141;-69
2022/03/26 04:21:11;;;;;;;90.22;38.88;;;2.80;99.90;;;;;;5088618;28;20025;-69
2022/03/26 04:23:37;;;;;;;86.90;39.17;;;2.90;99.90;;;;;;5087585;28;20037;-68
2022/03/26 04:26:03;;;;;;;88.93;38.85;;;2.90;99.90;;;;;;5087553;28;20028;-69
2022/03/26 04:28:29;;;;;;;87.70;39.03;;;2.90;99.90;;;;;;5088430;28;20020;-68
2022/03/26 04:30:54;;;;;;;86.28;39.00;;;2.90;99.90;;;;;;5088569;28;20701;-69
2022/03/26 04:33:20;;;;;;;86.32;37.78;;;2.90;99.90;;;;;;5087791;28;20047;-68
2022/03/26 04:35:46;;;;;;;82.35;36.85;;;2.90;99.90;;;;;;5076144;28;20062;-69
2022/03/26 04:38:11;;;;;;;85.90;37.35;;;2.90;99.90;;;;;;5072585;28;20040;-69
2022/03/26 04:40:37;;;;;;;81.60;35.05;;;2.90;99.90;;;;;;5059638;28;21143;-69
2022/03/26 04:43:03;;;;;;;79.22;36.55;;;2.80;99.90;;;;;;5085989;28;20151;-69
2022/03/26 04:45:30;;;;;;;78.45;35.15;;;2.70;99.90;;;;;;5085893;28;20032;-68
2022/03/26 04:47:56;;;;;;;88.47;37.80;;;2.70;99.90;;;;;;5088421;28;20074;-68
2022/03/26 04:50:22;;;;;;;91.15;37.88;;;2.70;99.90;;;;;;5074612;28;20119;-68
2022/03/26 04:52:48;;;;;;;87.80;37.75;;;2.60;99.90;;;;;;5083070;28;20023;-69
2022/03/26 04:55:14;;;;;;;95.93;40.97;;;2.60;99.90;;;;;;5070964;28;20407;-69
2022/03/26 04:57:42;;;;;;;88.40;38.47;;;2.60;99.90;;;;;;5072534;28;20040;-69
2022/03/26 05:00:09;;;;;;;103.88;43.33;;;2.60;99.90;;;;;;5093930;28;20032;-68
2022/03/26 05:02:39;;;;;;;100.82;43.30;;;2.60;99.90;;;;;;5088965;28;20029;-69
2022/03/26 05:05:06;;;;;;;88.88;40.55;;;2.60;99.90;;;;;;5083861;28;20021;-69
2022/03/26 05:07:47;;;;;;;95.43;40.35;;;2.60;99.90;;;;;;5093020;28;20200;-69
2022/03/26 05:10:27;;;;;;;99.05;40.55;;;2.60;99.90;;;;;;5088167;28;20036;-69
2022/03/26 05:12:53;;;;;;;105.10;43.22;;;2.60;99.90;;;;;;5090552;28;20432;-69
2022/03/26 05:15:23;;;;;;;100.82;43.25;;;2.50;99.90;;;;;;5086819;28;20034;-68
2022/03/26 05:17:51;;;;;;;106.22;43.80;;;2.60;99.90;;;;;;5092592;28;20040;-69
2022/03/26 05:20:17;;;;;;;99.57;42.10;;;2.60;99.90;;;;;;5099087;28;20043;-69
2022/03/26 05:22:45;;;;;;;104.18;42.22;;;2.70;99.90;;;;;;5096095;28;20031;-68
2022/03/26 05:25:11;;;;;;;110.70;44.60;;;2.70;99.90;;;;;;5100610;28;20021;-69
2022/03/26 05:27:37;;;;;;;102.63;43.42;;;2.80;99.90;;;;;;5095617;28;20050;-68
2022/03/26 05:30:07;;;;;;;101.25;42.95;;;2.80;99.90;;;;;;5089726;28;20020;-69
2022/03/26 05:32:34;;;;;;;102.97;42.17;;;2.80;99.90;;;;;;5081147;28;20052;-69
2022/03/26 05:34:59;;;;;;;87.70;39.15;;;2.80;99.90;;;;;;5090188;28;20040;-69
2022/03/26 05:37:25;;;;;;;84.05;37.58;;;2.70;99.90;;;;;;5076226;28;20037;-69
2022/03/26 05:39:51;;;;;;;81.45;36.83;;;2.70;99.90;;;;;;5090159;28;20514;-70
2022/03/26 05:42:18;;;;;;;85.50;35.60;;;2.60;99.90;;;;;;5094877;28;20576;-69
2022/03/26 05:44:44;;;;;;;89.53;36.90;;;2.60;99.90;;;;;;5089877;28;20497;-68
2022/03/26 05:47:12;;;;;;;89.32;35.30;;;2.60;99.90;;;;;;5088603;28;20046;-68
2022/03/26 05:49:38;;;;;;;80.97;35.67;;;2.50;99.90;;;;;;5092495;28;20565;-69
2022/03/26 05:52:04;;;;;;;78.45;35.00;;;2.60;99.90;;;;;;5093902;28;20091;-69
2022/03/26 05:54:30;;;;;;;77.93;36.15;;;2.50;99.90;;;;;;5092529;28;20039;-68
2022/03/26 05:56:55;;;;;;;82.45;34.83;;;2.50;99.90;;;;;;5075150;28;20040;-68
2022/03/26 05:59:23;;;;;;;85.72;37.20;;;2.50;99.90;;;;;;5094272;28;20038;-68
2022/03/26 06:01:54;;;;;;;100.53;39.65;;;2.60;99.90;;;;;;5094523;28;20031;-68
2022/03/26 06:04:21;;;;;;;107.90;43.40;;;2.70;99.90;;;;;;5092542;28;20483;-68
2022/03/26 06:06:48;;;;;;;105.28;43.15;;;2.70;99.90;;;;;;5091202;28;20123;-69
2022/03/26 06:09:14;;;;;;;97.18;41.03;;;2.80;99.90;;;;;;5092831;28;20040;-68
2022/03/26 06:11:39;;;;;;;106.38;42.70;;;2.80;99.90;;;;;;5089219;28;20070;-68
2022/03/26 06:14:06;;;;;;;97.03;42.58;;;2.90;99.90;;;;;;5093346;28;20053;-69
2022/03/26 06:16:32;;;;;;;120.18;48.25;;;3.00;99.90;;;;;;5096711;28;20047;-69
2022/03/26 06:18:58;;;;;;;116.18;48.45;;;3.10;99.90;;;;;;5092505;28;20040;-69
2022/03/26 06:21:24;;;;;;;125.88;50.33;;;3.20;99.90;;;;;;5093227;28;20035;-69
2022/03/26 06:23:49;;;;;;;136.95;55.63;;;3.40;99.90;;;;;;5076597;28;20466;-69
2022/03/26 06:26:15;;;;;;;139.15;55.00;;;3.80;99.90;;;;;;5090890;28;20031;-69
2022/03/26 06:28:41;;;;;;;132.00;55.00;;;4.20;99.90;;;;;;5089468;28;20693;-68
2022/03/26 06:31:08;;;;;;;147.63;57.25;;;4.60;99.90;;;;;;5109826;28;20087;-68
2022/03/26 06:33:35;;;;;;;129.80;51.60;;;5.20;99.90;;;;;;5093217;28;20130;-68
2022/03/26 06:36:01;;;;;;;148.10;57.53;;;5.50;99.90;;;;;;5097299;28;20324;-69
2022/03/26 06:38:31;;;;;;;164.57;65.40;;;5.80;99.90;;;;;;5093956;28;20777;-68
2022/03/26 06:40:58;;;;;;;169.38;67.07;;;6.00;99.90;;;;;;5092821;28;20044;-69
2022/03/26 06:43:24;;;;;;;154.88;65.78;;;6.20;99.90;;;;;;5096288;28;20028;-69
2022/03/26 06:45:50;;;;;;;147.27;61.97;;;6.40;99.90;;;;;;5091798;28;20054;-69
2022/03/26 06:48:15;;;;;;;152.82;64.40;;;6.70;99.90;;;;;;5091491;28;20028;-70
2022/03/26 06:50:42;;;;;;;159.15;68.38;;;6.90;99.90;;;;;;5095080;28;20046;-68
2022/03/26 06:53:07;;;;;;;160.57;69.53;;;7.10;99.90;;;;;;5089019;28;20128;-82
2022/03/26 06:55:33;;;;;;;174.65;71.18;;;7.20;99.90;;;;;;5078608;28;20044;-78
2022/03/26 06:57:59;;;;;;;167.20;72.35;;;7.40;99.90;;;;;;5089880;28;20055;-68
2022/03/26 07:00:24;;;;;;;161.35;71.53;;;7.60;99.90;;;;;;5089759;28;20025;-68
2022/03/26 07:02:50;;;;;;;157.30;69.18;;;7.70;99.90;;;;;;5073315;28;20100;-68
2022/03/26 07:05:16;;;;;;;159.85;66.97;;;7.80;99.90;;;;;;5095401;28;20082;-67
2022/03/26 07:07:41;;;;;;;163.88;69.22;;;7.90;99.90;;;;;;5097310;28;20032;-68
2022/03/26 07:10:08;;;;;;;152.43;68.35;;;8.10;99.90;;;;;;5094102;28;20035;-68
2022/03/26 07:12:34;;;;;;;154.45;63.80;;;8.20;99.90;;;;;;5093892;28;20387;-69
2022/03/26 07:15:00;;;;;;;160.98;68.10;;;8.40;99.90;;;;;;5086851;28;20039;-69
2022/03/26 07:17:26;;;;;;;149.95;67.63;;;8.40;99.90;;;;;;5091548;28;20087;-69
2022/03/26 07:19:51;;;;;;;153.35;66.47;;;8.70;99.90;;;;;;5088508;28;20021;-68
2022/03/26 07:22:18;;;;;;;147.55;65.78;;;8.80;99.90;;;;;;5086719;28;20237;-71
2022/03/26 07:24:44;;;;;;;155.88;66.40;;;8.90;99.90;;;;;;5087493;28;20047;-68
2022/03/26 07:27:09;;;;;;;140.93;63.63;;;8.90;99.90;;;;;;5091159;28;20031;-69
2022/03/26 07:29:39;;;;;;;136.55;60.67;;;9.10;99.90;;;;;;5092552;28;20056;-69
2022/03/26 07:32:07;;;;;;;149.13;63.15;;;9.40;99.90;;;;;;5090174;28;20123;-69
2022/03/26 07:34:32;;;;;;;136.40;61.45;;;9.70;99.90;;;;;;5089568;28;20024;-69
2022/03/26 07:36:58;;;;;;;139.10;61.38;;;10.10;99.90;;;;;;5081788;28;20085;-69
2022/03/26 07:39:25;;;;;;;127.70;61.45;;;11.20;99.90;;;;;;5098077;28;20023;-69
2022/03/26 07:41:51;;;;;;;124.15;59.08;;;12.30;99.90;;;;;;5084395;28;20030;-70
2022/03/26 07:44:16;;;;;;;123.93;60.40;;;13.10;99.90;;;;;;5082550;28;20466;-69
2022/03/26 07:46:42;;;;;;;116.75;56.50;;;13.80;99.90;;;;;;5083425;28;20039;-69
2022/03/26 07:49:08;;;;;;;116.55;56.97;;;14.30;99.90;;;;;;5082704;28;20036;-69
2022/03/26 07:51:33;;;;;;;113.05;53.53;;;15.00;99.90;;;;;;5099333;28;20033;-69
2022/03/26 07:53:59;;;;;;;105.40;50.35;;;15.80;99.90;;;;;;5085323;28;20024;-69
2022/03/26 07:56:25;;;;;;;108.03;51.42;;;16.00;90.90;;;;;;5103484;28;20028;-69
2022/03/26 07:58:50;;;;;;;102.43;49.65;;;16.60;94.90;;;;;;5104268;28;20092;-69
2022/03/26 08:01:16;;;;;;;102.47;48.75;;;16.90;93.00;;;;;;5099384;28;20056;-69
2022/03/26 08:03:42;;;;;;;107.70;50.83;;;17.20;77.50;;;;;;5095372;28;20032;-69
2022/03/26 08:06:07;;;;;;;92.95;46.88;;;17.70;71.30;;;;;;5101402;28;20027;-69
2022/03/26 08:08:33;;;;;;;90.53;43.80;;;17.80;70.30;;;;;;5101603;28;20026;-69
2022/03/26 08:10:59;;;;;;;84.40;43.28;;;18.00;59.60;;;;;;5098396;28;20016;-69
2022/03/26 08:13:25;;;;;;;84.63;44.10;;;18.80;57.20;;;;;;5079434;28;20039;-69
2022/03/26 08:15:51;;;;;;;81.25;42.05;;;19.00;56.80;;;;;;5085289;28;20060;-69
2022/03/26 08:18:16;;;;;;;84.57;42.70;;;19.50;53.50;;;;;;5098814;28;20048;-71
2022/03/26 08:20:45;;;;;;;91.28;43.53;;;19.90;54.50;;;;;;5101048;28;20057;-70
2022/03/26 08:23:11;;;;;;;83.22;40.47;;;20.20;50.50;;;;;;5099486;28;20028;-68
2022/03/26 08:28:21;;;;;;;82.10;43.00;;;21.60;48.40;;;;;;5099951;28;20065;-68
2022/03/26 08:30:47;;;;;;;78.97;40.03;;;21.80;46.80;;;;;;5099819;28;20032;-68
2022/03/26 08:33:16;;;;;;;74.88;40.28;;;22.20;46.40;;;;;;5101837;28;20460;-68
2022/03/26 08:35:42;;;;;;;75.45;39.22;;;21.80;42.80;;;;;;5097098;28;20042;-68
2022/03/26 08:38:08;;;;;;;76.10;38.72;;;22.70;44.20;;;;;;5098545;28;20537;-68
2022/03/26 08:40:35;;;;;;;72.28;37.63;;;21.80;42.50;;;;;;5092796;28;20016;-68
2022/03/26 08:43:01;;;;;;;71.25;35.90;;;22.90;43.50;;;;;;5093135;28;20079;-72
2022/03/26 08:45:27;;;;;;;69.85;37.47;;;23.10;42.30;;;;;;5089707;28;20039;-71
2022/03/26 08:47:54;;;;;;;66.32;36.00;;;23.00;41.40;;;;;;5082347;28;20048;-68
2022/03/26 08:50:19;;;;;;;67.43;35.90;;;24.10;41.70;;;;;;5093479;28;20028;-71
2022/03/26 08:52:47;;;;;;;65.75;35.28;;;22.80;38.40;;;;;;5097320;28;20040;-74
2022/03/26 08:55:17;;;;;;;65.18;35.15;;;23.60;40.10;;;;;;5096612;28;20774;-71
2022/03/26 08:57:43;;;;;;;63.42;35.03;;;24.10;41.00;;;;;;5089259;28;20072;-72
2022/03/26 09:00:11;;;;;;;69.75;36.00;;;24.00;38.10;;;;;;5093751;28;20036;-71
2022/03/26 09:02:38;;;;;;;67.35;36.95;;;23.90;37.40;;;;;;5085385;28;20020;-70
2022/03/26 09:05:06;;;;;;;70.47;34.08;;;22.90;37.50;;;;;;5095475;28;20400;-70
2022/03/26 09:07:35;;;;;;;69.07;37.08;;;23.60;38.40;;;;;;5093318;28;20055;-70
2022/03/26 09:10:01;;;;;;;166.25;47.35;;;23.90;37.80;;;;;;5087410;28;20033;-71
2022/03/26 09:12:27;;;;;;;206.82;51.75;;;24.60;37.80;;;;;;5084797;28;20433;-71
2022/03/26 09:14:52;;;;;;;66.13;35.53;;;24.50;37.10;;;;;;5089400;28;20028;-71
2022/03/26 09:17:18;;;;;;;65.93;34.58;;;25.40;37.40;;;;;;5091667;28;20052;-70
2022/03/26 09:19:44;;;;;;;58.78;31.90;;;25.40;35.40;;;;;;5090174;28;20024;-70
2022/03/26 09:22:10;;;;;;;59.35;30.77;;;24.10;35.00;;;;;;5088995;28;20027;-71
2022/03/26 09:24:36;;;;;;;60.95;31.38;;;23.50;37.40;;;;;;5093189;28;20079;-74
2022/03/26 09:27:02;;;;;;;59.90;31.45;;;22.40;38.20;;;;;;5086128;28;20017;-74
2022/03/26 09:29:27;;;;;;;172.05;44.40;;;21.70;39.90;;;;;;5079143;28;20051;-73
2022/03/26 09:31:53;;;;;;;61.25;32.85;;;21.40;42.90;;;;;;5091088;28;20055;-74
2022/03/26 09:34:19;;;;;;;64.70;32.38;;;20.90;43.80;;;;;;5086673;28;20414;-74
2022/03/26 09:36:45;;;;;;;59.53;31.38;;;20.20;44.00;;;;;;5092035;28;20031;-73
2022/03/26 09:39:10;;;;;;;52.22;27.55;;;20.60;47.10;;;;;;5086292;28;20394;-73
2022/03/26 09:41:36;;;;;;;44.83;26.70;;;20.10;46.10;;;;;;5089035;28;20067;-73
2022/03/26 09:44:03;;;;;;;50.75;27.55;;;19.60;46.90;;;;;;5089882;28;20042;-71
2022/03/26 09:46:29;;;;;;;52.45;29.38;;;19.50;48.20;;;;;;5094101;28;20020;-87
2022/03/26 09:48:55;;;;;;;52.65;28.02;;;19.50;51.50;;;;;;5085574;28;20795;-70
2022/03/26 09:51:24;;;;;;;51.65;26.52;;;20.10;50.50;;;;;;5094407;28;20032;-70
2022/03/26 09:53:54;;;;;;;49.20;27.02;;;20.70;50.50;;;;;;5094168;28;20024;-71
2022/03/26 09:56:20;;;;;;;51.70;29.13;;;21.10;48.30;;;;;;5092182;28;20028;-70
2022/03/26 09:58:46;;;;;;;50.63;28.45;;;22.20;47.30;;;;;;5080076;28;20032;-71
2022/03/26 10:01:11;;;;;;;57.10;28.67;;;23.20;44.80;;;;;;5085457;28;20028;-70
2022/03/26 10:03:41;;;;;;;50.85;27.50;;;24.10;43.00;;;;;;5100153;28;20035;-71
2022/03/26 10:06:07;;;;;;;44.08;26.95;;;23.10;41.40;;;;;;5096067;28;20100;-70
2022/03/26 10:08:38;;;;;;;41.83;25.95;;;23.60;41.90;;;;;;5098726;28;20471;-70
2022/03/26 10:11:09;;;;;;;40.55;24.00;;;23.60;41.50;;;;;;5094942;28;20105;-70
2022/03/26 10:13:39;;;;;;;40.08;24.02;;;24.30;40.10;;;;;;5095383;28;20057;-71
2022/03/26 10:16:12;;;;;;;40.95;23.98;;;25.40;41.40;;;;;;5092205;28;20027;-72
2022/03/26 10:18:44;;;;;;;35.50;21.55;;;26.00;40.00;;;;;;5094720;28;20111;-71
2022/03/26 10:21:17;;;;;;;37.78;21.83;;;24.50;39.40;;;;;;5098522;28;20402;-71
2022/03/26 10:23:43;;;;;;;34.88;21.08;;;24.90;39.40;;;;;;5094358;28;20039;-71
2022/03/26 10:26:10;;;;;;;37.17;20.88;;;25.50;39.40;;;;;;5090589;28;20020;-70
2022/03/26 10:28:37;;;;;;;31.85;19.77;;;25.90;41.00;;;;;;5090830;28;20060;-70
2022/03/26 10:34:10;;;;;;;27.70;17.92;;;26.40;39.20;;;;;;5102963;28;20042;-71
2022/03/26 10:36:47;;;;;;;31.15;20.25;;;26.10;39.90;;;;;;5095497;28;20017;-71
2022/03/26 10:39:36;;;;;;;30.88;18.63;;;25.70;39.40;;;;;;5099702;28;20054;-70
2022/03/26 10:42:01;;;;;;;30.27;19.20;;;25.60;39.20;;;;;;5088912;28;20044;-71
2022/03/26 10:44:29;;;;;;;28.17;17.77;;;25.70;38.80;;;;;;5095404;28;20055;-71
2022/03/26 10:47:04;;;;;;;29.83;17.60;;;27.00;39.40;;;;;;5091901;28;20031;-71
2022/03/26 10:49:36;;;;;;;24.98;15.27;;;27.70;39.10;;;;;;5094500;28;20482;-71
2022/03/26 10:52:16;;;;;;;26.15;16.17;;;26.60;38.10;;;;;;5099586;28;20047;-71
2022/03/26 10:54:42;;;;;;;24.05;15.18;;;26.50;38.00;;;;;;5098469;28;20085;-71
2022/03/26 10:57:08;;;;;;;26.05;17.33;;;26.90;38.20;;;;;;5095193;28;20032;-71
2022/03/26 10:59:34;;;;;;;30.98;18.33;;;25.40;38.60;;;;;;5088339;28;20056;-71
2022/03/26 11:02:01;;;;;;;25.48;16.95;;;25.90;37.80;;;;;;5107720;28;20169;-71
2022/03/26 11:04:27;;;;;;;26.67;16.15;;;26.50;39.50;;;;;;5089303;28;20062;-72
2022/03/26 11:06:54;;;;;;;24.42;15.10;;;26.80;38.80;;;;;;5100155;28;20617;-71
2022/03/26 11:09:20;;;;;;;23.27;15.65;;;26.60;38.00;;;;;;5099623;28;20020;-72
2022/03/26 11:11:49;;;;;;;23.70;14.45;;;27.00;37.10;;;;;;5091371;28;20028;-72
2022/03/26 11:14:38;;;;;;;24.92;14.88;;;26.50;37.40;;;;;;5098392;28;20111;-72
2022/03/26 11:17:23;;;;;;;18.23;11.95;;;25.80;38.50;;;;;;5096978;28;20043;-72
2022/03/26 11:20:26;;;;;;;15.90;11.63;;;26.10;38.70;;;;;;5097197;28;20028;-72
2022/03/26 11:23:21;;;;;;;20.63;13.40;;;26.30;38.80;;;;;;5101151;28;20077;-72
2022/03/26 11:25:52;;;;;;;23.67;13.15;;;26.80;37.70;;;;;;5102631;28;20562;-72
2022/03/26 11:28:36;;;;;;;20.58;13.13;;;25.90;38.50;;;;;;5101553;28;20032;-72
2022/03/26 11:31:26;;;;;;;19.10;13.15;;;25.90;38.10;;;;;;5092321;28;20326;-72
2022/03/26 11:34:03;;;;;;;18.77;13.53;;;26.20;39.40;;;;;;5103018;28;20032;-71
2022/03/26 11:36:29;;;;;;;22.33;13.75;;;27.40;39.10;;;;;;5091676;28;20094;-72
2022/03/26 11:39:07;;;;;;;22.50;14.25;;;26.90;37.20;;;;;;5099188;28;20032;-72
2022/03/26 11:41:33;;;;;;;19.35;13.32;;;25.90;37.40;;;;;;5088056;28;20073;-80
2022/03/26 11:44:01;;;;;;;21.60;13.80;;;26.00;37.80;;;;;;5087059;28;20034;-73
2022/03/26 11:52:24;;;;;;;17.38;10.48;;;25.90;36.80;;;;;;5088048;28;20306;-71
2022/03/26 11:55:11;;;;;;;20.58;12.88;;;27.50;37.60;;;;;;5088559;28;20031;-71
2022/03/26 11:57:36;;;;;;;18.60;11.70;;;26.40;36.60;;;;;;5087856;28;20066;-72
2022/03/26 12:00:11;;;;;;;17.85;10.13;;;26.90;37.90;;;;;;5087751;28;20123;-71
2022/03/26 12:02:46;;;;;;;20.02;10.68;;;26.00;36.80;;;;;;5088032;28;20046;-71
2022/03/26 12:08:18;;;;;;;17.10;10.27;;;27.40;37.60;;;;;;5091893;28;20081;-73
2022/03/26 12:10:45;;;;;;;19.98;11.63;;;27.20;35.70;;;;;;5085497;28;20143;-73
2022/03/26 12:13:18;;;;;;;19.20;12.20;;;27.20;35.60;;;;;;5086471;28;20398;-70
2022/03/26 12:16:01;;;;;;;16.85;10.50;;;26.50;36.60;;;;;;5090926;28;20032;-69
2022/03/26 12:18:37;;;;;;;17.30;9.00;;;25.80;35.30;;;;;;5092003;28;20040;-71
2022/03/26 12:21:20;;;;;;;14.20;8.13;;;27.40;37.60;;;;;;5093555;28;20032;-71
2022/03/26 12:23:46;;;;;;;16.08;9.45;;;26.90;36.40;;;;;;5087278;28;20075;-72
2022/03/26 12:26:13;;;;;;;14.35;9.02;;;25.90;36.00;;;;;;5088080;28;20088;-72
2022/03/26 12:28:41;;;;;;;15.07;8.68;;;26.20;37.10;;;;;;5082366;28;20025;-71
2022/03/26 12:31:14;;;;;;;14.68;9.75;;;25.90;37.60;;;;;;5092248;28;20089;-72
2022/03/26 12:33:48;;;;;;;13.57;8.40;;;25.00;36.70;;;;;;5086581;28;20040;-69
2022/03/26 12:36:16;;;;;;;15.07;8.57;;;26.70;39.30;;;;;;5090189;28;20053;-86
2022/03/26 12:38:47;;;;;;;13.68;8.10;;;25.90;37.60;;;;;;5087189;28;20046;-87
2022/03/26 12:41:14;;;;;;;12.80;7.70;;;26.80;37.40;;;;;;5088325;28;20020;-67
2022/03/26 12:43:39;;;;;;;14.20;8.15;;;27.20;36.90;;;;;;5086985;28;20052;-74
2022/03/26 12:46:10;;;;;;;12.65;7.50;;;25.90;36.10;;;;;;5087197;28;20032;-74